Time;durP1;ratioP1;P1;durP2;ratioP2;P2;SDS_P1;SDS_P2;PMS_P1;PMS_P2;Temp;Humidity;BMP_temperature;BMP_pressure;BME280_temperature;BME280_humidity;BME280_pressure;Samples;Min_cycle;Max_cycle;Signal;HPM_P1;HPM_P2
2022/11/06 00:00:53;;;;;;;0.47;0.30;;;20.60;57.00;;;;;;6207980;28;20036;-35
2022/11/06 00:03:54;;;;;;;0.40;0.22;;;20.80;57.30;;;;;;6212103;28;20048;-35
2022/11/06 00:06:56;;;;;;;;;;;21.00;57.40;;;;;;6207513;28;20164;-34
2022/11/06 00:09:57;;;;;;;0.55;0.32;;;21.10;57.40;;;;;;6206128;28;20031;-34
2022/11/06 00:12:59;;;;;;;0.65;0.20;;;21.10;57.50;;;;;;6208097;28;21019;-35
2022/11/06 00:16:02;;;;;;;0.30;0.30;;;21.50;57.70;;;;;;6209178;28;20083;-35
2022/11/06 00:19:05;;;;;;;0.47;0.25;;;20.70;57.30;;;;;;6204470;28;20493;-35
2022/11/06 00:22:09;;;;;;;0.32;0.25;;;20.80;57.50;;;;;;6178613;28;20079;-34
2022/11/06 00:25:11;;;;;;;0.20;0.20;;;21.00;57.70;;;;;;6210188;28;20041;-35
2022/11/06 00:28:12;;;;;;;0.30;0.20;;;20.80;57.60;;;;;;6208291;28;20959;-35
2022/11/06 00:31:18;;;;;;;0.60;0.30;;;21.20;57.90;;;;;;6207092;28;20088;-34
2022/11/06 00:34:19;;;;;;;0.65;0.20;;;21.20;57.80;;;;;;6205756;28;20047;-34
2022/11/06 00:37:24;;;;;;;0.40;0.30;;;20.70;57.60;;;;;;6208857;28;20044;-34
2022/11/06 00:40:25;;;;;;;0.40;0.20;;;20.70;57.80;;;;;;6211630;28;21095;-34
2022/11/06 00:43:27;;;;;;;0.43;0.30;;;21.00;58.10;;;;;;6205960;28;20041;-35
2022/11/06 00:46:29;;;;;;;0.45;0.30;;;20.80;57.90;;;;;;6204717;28;20362;-35
2022/11/06 00:49:31;;;;;;;0.52;0.30;;;20.70;57.80;;;;;;6197660;28;20940;-34
2022/11/06 00:52:35;;;;;;;0.65;0.30;;;20.80;58.60;;;;;;6210394;28;20155;-35
2022/11/06 00:55:37;;;;;;;0.28;0.10;;;20.80;58.00;;;;;;6211884;28;20041;-35
2022/11/06 00:58:39;;;;;;;;;;;21.00;58.10;;;;;;6212786;28;20037;-35
2022/11/06 01:01:42;;;;;;;;;;;20.50;57.90;;;;;;6209872;28;19987;-34
2022/11/06 01:04:44;;;;;;;0.40;0.30;;;20.70;58.10;;;;;;6218334;28;20751;-34
2022/11/06 01:07:46;;;;;;;0.40;0.30;;;21.20;58.10;;;;;;6213362;28;20037;-35
2022/11/06 01:10:47;;;;;;;0.63;0.30;;;21.00;58.20;;;;;;6213000;28;20119;-35
2022/11/06 01:13:50;;;;;;;0.57;0.30;;;21.20;58.30;;;;;;6210964;28;20119;-35
2022/11/06 01:16:52;;;;;;;0.38;0.30;;;20.60;58.00;;;;;;6196662;28;20041;-34
2022/11/06 01:19:54;;;;;;;0.60;0.40;;;20.70;58.10;;;;;;6212690;28;20822;-35
2022/11/06 01:22:55;;;;;;;0.32;0.30;;;21.00;58.30;;;;;;6215463;28;20049;-35
2022/11/06 01:25:57;;;;;;;0.47;0.20;;;20.90;58.30;;;;;;6211252;28;20072;-35
2022/11/06 01:28:59;;;;;;;0.63;0.30;;;21.10;58.30;;;;;;6199310;28;20053;-34
2022/11/06 01:32:01;;;;;;;0.32;0.30;;;20.90;58.20;;;;;;6212634;28;20148;-35
2022/11/06 01:35:03;;;;;;;0.32;0.20;;;20.80;58.10;;;;;;6193292;28;20047;-35
2022/11/06 01:38:05;;;;;;;0.50;0.38;;;20.90;58.20;;;;;;6215784;28;20041;-34
2022/11/06 01:41:06;;;;;;;;;;;20.90;58.30;;;;;;6216198;28;20044;-34
2022/11/06 01:44:37;;;;;;;0.73;0.30;;;21.10;58.50;;;;;;6214665;28;19932;-34
2022/11/06 01:47:39;;;;;;;0.73;0.40;;;21.30;58.40;;;;;;6208532;28;20053;-35
2022/11/06 01:50:43;;;;;;;0.30;0.25;;;20.90;58.30;;;;;;6213393;28;20199;-35
2022/11/06 01:53:45;;;;;;;0.73;0.40;;;20.90;58.30;;;;;;6196164;28;20124;-35
2022/11/06 01:56:50;;;;;;;0.25;0.20;;;20.50;58.30;;;;;;6218871;28;20072;-35
2022/11/06 01:59:53;;;;;;;0.38;0.20;;;20.70;58.40;;;;;;6215156;28;20892;-34
2022/11/06 02:02:55;;;;;;;0.35;0.30;;;21.10;58.70;;;;;;6216564;28;20051;-35
2022/11/06 02:05:58;;;;;;;0.77;0.30;;;20.80;58.60;;;;;;6216145;28;20052;-35
2022/11/06 02:09:01;;;;;;;0.38;0.30;;;21.10;58.70;;;;;;6218415;28;20139;-34
2022/11/06 02:12:10;;;;;;;0.60;0.30;;;21.10;58.80;;;;;;6216305;28;20033;-35
2022/11/06 02:15:20;;;;;;;0.20;0.20;;;21.00;58.90;;;;;;6216909;28;20041;-35
2022/11/06 02:18:37;;;;;;;1.05;0.40;;;21.10;59.00;;;;;;6221226;28;20150;-34
2022/11/06 02:22:09;;;;;;;0.60;0.30;;;21.00;59.10;;;;;;6216419;28;20772;-34
2022/11/06 02:25:19;;;;;;;0.52;0.30;;;20.80;59.10;;;;;;6215679;28;20041;-34
2022/11/06 02:28:27;;;;;;;0.32;0.28;;;21.10;59.40;;;;;;6213405;28;20811;-35
2022/11/06 02:31:33;;;;;;;0.85;0.40;;;20.80;59.20;;;;;;6213800;28;20830;-35
2022/11/06 02:34:36;;;;;;;0.30;0.20;;;20.60;59.10;;;;;;6215315;28;20114;-34
2022/11/06 02:37:40;;;;;;;0.28;0.20;;;20.80;59.30;;;;;;6210989;28;20084;-35
2022/11/06 02:40:48;;;;;;;0.88;0.40;;;21.00;59.40;;;;;;6210203;28;20307;-34
2022/11/06 02:43:54;;;;;;;0.50;0.30;;;21.10;59.40;;;;;;6206310;28;20364;-35
2022/11/06 02:46:59;;;;;;;0.43;0.35;;;21.00;59.50;;;;;;6195735;28;20067;-35
2022/11/06 02:50:06;;;;;;;0.40;0.30;;;21.10;59.60;;;;;;6210886;28;20037;-34
2022/11/06 02:53:10;;;;;;;0.88;0.30;;;21.10;59.70;;;;;;6196552;28;21412;-34
2022/11/06 02:56:15;;;;;;;0.40;0.30;;;20.90;59.50;;;;;;6199663;28;20041;-34
2022/11/06 02:59:21;;;;;;;0.63;0.30;;;20.90;59.60;;;;;;6213485;28;20087;-34
2022/11/06 03:02:27;;;;;;;0.47;0.47;;;21.00;59.80;;;;;;6194395;28;20236;-34
2022/11/06 03:05:32;;;;;;;0.20;0.20;;;20.70;59.70;;;;;;6216884;28;20594;-35
2022/11/06 03:08:38;;;;;;;0.40;0.20;;;21.10;60.00;;;;;;6199585;28;20033;-34
2022/11/06 03:11:40;;;;;;;0.38;0.30;;;20.90;59.90;;;;;;6211141;28;20990;-34
2022/11/06 03:14:51;;;;;;;0.65;0.35;;;21.10;60.00;;;;;;6197940;28;20308;-35
2022/11/06 03:18:00;;;;;;;0.30;0.30;;;21.10;60.20;;;;;;6213787;28;20033;-35
2022/11/06 03:21:06;;;;;;;0.43;0.20;;;20.90;60.10;;;;;;6211410;28;20242;-34
2022/11/06 03:24:15;;;;;;;0.30;0.20;;;20.90;60.70;;;;;;6202723;28;20322;-35
2022/11/06 03:27:22;;;;;;;0.65;0.45;;;21.10;60.40;;;;;;6210781;28;20025;-35
2022/11/06 03:30:24;;;;;;;0.70;0.20;;;20.80;60.20;;;;;;6207706;28;20410;-35
2022/11/06 03:33:33;;;;;;;0.40;0.25;;;20.60;60.20;;;;;;6210279;28;20179;-34
2022/11/06 03:36:40;;;;;;;0.28;0.20;;;21.10;60.50;;;;;;6200541;28;20290;-35
2022/11/06 03:39:51;;;;;;;0.50;0.35;;;21.20;60.70;;;;;;6213463;28;20348;-35
2022/11/06 03:42:56;;;;;;;0.40;0.20;;;20.80;60.50;;;;;;6199008;28;20549;-35
2022/11/06 03:46:00;;;;;;;0.20;0.20;;;20.40;60.30;;;;;;6213042;28;20819;-35
2022/11/06 03:49:06;;;;;;;0.30;0.30;;;21.00;60.80;;;;;;6213531;28;20127;-35
2022/11/06 03:52:12;;;;;;;0.50;0.20;;;21.70;61.20;;;;;;6213575;28;20088;-35
2022/11/06 03:55:17;;;;;;;0.20;0.17;;;21.20;61.00;;;;;;6210105;28;20444;-34
2022/11/06 03:58:22;;;;;;;0.20;0.20;;;21.20;61.10;;;;;;6211276;28;20372;-35
2022/11/06 04:01:31;;;;;;;0.20;0.20;;;21.20;61.10;;;;;;6201686;28;20044;-35
2022/11/06 04:04:37;;;;;;;0.65;0.30;;;21.00;61.10;;;;;;6211988;28;20144;-34
2022/11/06 04:13:55;;;;;;;0.20;0.20;;;21.10;61.20;;;;;;6215661;28;20037;-34
2022/11/06 04:14:25;;;;;;;0.30;0.20;;;21.60;61.60;;;;;;6214412;28;20048;-34
2022/11/06 04:17:29;;;;;;;0.40;0.30;;;21.10;61.30;;;;;;6215988;28;20480;-34
2022/11/06 04:27:50;;;;;;;0.50;0.45;;;21.00;61.70;;;;;;6206101;28;20141;-35
2022/11/06 04:31:01;;;;;;;0.30;0.20;;;20.70;61.50;;;;;;6211053;28;20432;-35
2022/11/06 04:34:11;;;;;;;0.30;0.20;;;21.20;61.70;;;;;;6184940;28;20080;-34
2022/11/06 04:37:20;;;;;;;0.65;0.25;;;21.10;61.80;;;;;;6212405;28;20072;-34
2022/11/06 04:40:28;;;;;;;0.40;0.20;;;21.10;61.90;;;;;;6211010;28;20058;-34
2022/11/06 04:43:37;;;;;;;0.43;0.20;;;20.90;61.90;;;;;;6210204;28;20236;-34
2022/11/06 04:46:46;;;;;;;0.60;0.40;;;20.90;62.00;;;;;;6211069;28;20037;-34
2022/11/06 04:49:51;;;;;;;0.20;0.20;;;20.90;62.00;;;;;;6208036;28;20052;-34
2022/11/06 04:52:54;;;;;;;0.17;0.17;;;21.30;62.20;;;;;;6196763;28;20045;-35
2022/11/06 04:56:00;;;;;;;0.20;0.10;;;21.10;62.20;;;;;;6193497;28;20256;-34
2022/11/06 04:59:02;;;;;;;0.30;0.10;;;20.90;62.20;;;;;;6194721;28;20049;-34
2022/11/06 05:02:06;;;;;;;0.20;0.20;;;20.90;62.30;;;;;;6199092;28;20422;-35
2022/11/06 05:05:08;;;;;;;0.22;0.20;;;20.70;62.30;;;;;;6210336;28;20053;-35
2022/11/06 05:08:13;;;;;;;0.10;0.10;;;21.10;62.60;;;;;;6213201;28;20037;-34
2022/11/06 05:11:15;;;;;;;0.10;0.10;;;20.70;62.30;;;;;;6205593;28;20037;-35
2022/11/06 05:14:16;;;;;;;;;;;20.90;62.50;;;;;;6210690;28;20588;-34
2022/11/06 05:17:18;;;;;;;0.30;0.25;;;21.50;63.00;;;;;;6207994;28;19929;-35
2022/11/06 05:20:20;;;;;;;0.20;0.20;;;20.90;62.40;;;;;;6205419;28;20572;-34
2022/11/06 05:23:21;;;;;;;0.43;0.20;;;21.20;62.70;;;;;;6205220;28;20315;-34
2022/11/06 05:26:22;;;;;;;0.20;0.10;;;21.00;62.60;;;;;;6206016;28;20098;-34
2022/11/06 05:29:24;;;;;;;;;;;20.70;62.40;;;;;;6204868;28;20846;-35
2022/11/06 05:32:25;;;;;;;0.10;0.10;;;20.70;62.70;;;;;;6203885;28;19931;-35
2022/11/06 05:35:27;;;;;;;0.10;0.10;;;20.90;62.50;;;;;;6201160;28;20267;-35
2022/11/06 05:38:29;;;;;;;0.20;0.15;;;21.20;62.70;;;;;;6202974;28;20426;-35
2022/11/06 05:41:30;;;;;;;0.10;0.10;;;21.20;62.60;;;;;;6176056;28;20276;-35
2022/11/06 05:44:32;;;;;;;;;;;21.00;62.70;;;;;;6207193;28;20044;-35
2022/11/06 05:47:34;;;;;;;0.10;0.10;;;21.70;63.20;;;;;;6206744;28;19925;-35
2022/11/06 05:50:36;;;;;;;0.13;0.10;;;21.00;62.50;;;;;;6201691;28;20690;-35
2022/11/06 05:53:37;;;;;;;0.28;0.20;;;21.20;62.70;;;;;;6201458;28;20068;-35
2022/11/06 05:56:39;;;;;;;0.10;0.10;;;21.10;62.70;;;;;;6202626;28;20193;-35
2022/11/06 05:59:40;;;;;;;0.10;0.10;;;21.30;62.90;;;;;;6200374;28;20045;-35
2022/11/06 06:02:42;;;;;;;0.22;0.20;;;20.50;62.40;;;;;;6196583;28;20324;-35
2022/11/06 06:05:45;;;;;;;0.10;0.10;;;20.90;62.50;;;;;;6192126;28;20595;-34
2022/11/06 06:08:46;;;;;;;0.10;0.10;;;21.20;62.80;;;;;;6210991;28;20045;-35
2022/11/06 06:11:50;;;;;;;0.15;0.10;;;21.20;62.70;;;;;;6210756;28;20159;-35
2022/11/06 06:14:52;;;;;;;0.05;0.05;;;21.00;62.60;;;;;;6210538;28;20348;-35
2022/11/06 06:17:53;;;;;;;0.20;0.20;;;20.70;62.40;;;;;;6210823;28;20650;-34
2022/11/06 06:20:57;;;;;;;0.20;0.15;;;21.20;62.70;;;;;;6209005;28;20036;-35
2022/11/06 06:23:59;;;;;;;0.28;0.13;;;20.90;62.50;;;;;;6205499;28;20053;-35
2022/11/06 06:27:00;;;;;;;0.17;0.10;;;20.70;62.50;;;;;;6209571;28;20041;-35
2022/11/06 06:30:02;;;;;;;;;;;21.00;62.60;;;;;;6208243;28;20047;-35
2022/11/06 06:33:04;;;;;;;0.10;0.10;;;20.80;62.70;;;;;;6207565;28;19995;-35
2022/11/06 06:36:08;;;;;;;0.30;0.10;;;21.00;62.50;;;;;;6209821;28;20175;-35
2022/11/06 06:39:09;;;;;;;0.20;0.20;;;20.70;62.40;;;;;;6203188;28;20045;-35
2022/11/06 06:42:10;;;;;;;;;;;20.90;62.60;;;;;;6207313;28;20950;-34
2022/11/06 06:45:12;;;;;;;0.20;0.10;;;20.70;62.70;;;;;;6206624;28;19928;-34
2022/11/06 06:48:14;;;;;;;0.10;0.10;;;21.00;62.60;;;;;;6206986;28;20625;-35
2022/11/06 06:51:16;;;;;;;0.10;0.10;;;21.10;63.20;;;;;;6208058;28;20053;-35
2022/11/06 06:54:24;;;;;;;0.20;0.15;;;21.00;62.50;;;;;;6207433;28;20044;-35
2022/11/06 06:57:26;;;;;;;0.15;0.10;;;21.10;62.60;;;;;;6209276;28;20165;-35
2022/11/06 07:00:28;;;;;;;0.17;0.10;;;20.90;62.60;;;;;;6207787;28;20917;-35
2022/11/06 07:03:30;;;;;;;0.25;0.10;;;21.20;62.70;;;;;;6171605;28;20295;-35
2022/11/06 07:06:32;;;;;;;0.10;0.10;;;20.70;62.30;;;;;;6200203;28;20044;-35
2022/11/06 07:09:34;;;;;;;0.10;0.10;;;21.00;62.60;;;;;;6199479;28;20177;-35
2022/11/06 07:12:38;;;;;;;0.20;0.10;;;20.90;62.50;;;;;;6201148;28;20444;-35
2022/11/06 07:15:40;;;;;;;0.63;0.20;;;20.60;62.40;;;;;;6200965;28;20153;-35
2022/11/06 07:18:41;;;;;;;0.38;0.10;;;20.70;62.50;;;;;;6199634;28;20040;-35
2022/11/06 07:21:43;;;;;;;0.13;0.13;;;20.70;62.40;;;;;;6202702;28;20588;-35
2022/11/06 07:24:45;;;;;;;0.10;0.10;;;20.90;62.60;;;;;;6202425;28;20181;-35
2022/11/06 07:27:46;;;;;;;0.20;0.20;;;21.00;62.60;;;;;;6202878;28;20564;-35
2022/11/06 07:30:47;;;;;;;;;;;21.10;62.70;;;;;;6204325;28;20049;-35
2022/11/06 07:33:49;;;;;;;0.10;0.10;;;21.20;62.90;;;;;;6205272;28;19971;-34
2022/11/06 07:36:51;;;;;;;0.10;0.10;;;20.70;62.40;;;;;;6205258;28;20315;-35
2022/11/06 07:39:53;;;;;;;0.10;0.10;;;20.90;62.60;;;;;;6196615;28;20312;-35
2022/11/06 07:42:54;;;;;;;0.03;0.03;;;20.70;62.60;;;;;;6202169;28;20035;-35
2022/11/06 07:45:59;;;;;;;0.40;0.10;;;20.80;62.70;;;;;;6204063;28;20262;-35
2022/11/06 07:49:01;;;;;;;0.10;0.10;;;20.90;62.70;;;;;;6204531;28;20342;-35
2022/11/06 07:52:04;;;;;;;0.20;0.20;;;20.90;62.70;;;;;;6201013;28;20366;-35
2022/11/06 07:55:06;;;;;;;0.10;0.10;;;20.80;62.70;;;;;;6186748;28;20782;-34
2022/11/06 07:58:08;;;;;;;0.10;0.10;;;20.50;62.60;;;;;;6200080;28;20045;-35
2022/11/06 08:01:14;;;;;;;0.10;0.10;;;21.00;62.90;;;;;;6198097;28;20151;-36
2022/11/06 08:04:19;;;;;;;0.32;0.20;;;21.00;62.90;;;;;;6183131;28;20710;-35
2022/11/06 08:07:21;;;;;;;0.38;0.10;;;20.80;63.40;;;;;;6199335;28;20205;-35
2022/11/06 08:10:23;;;;;;;0.20;0.20;;;20.80;63.00;;;;;;6200258;28;20324;-34
2022/11/06 08:13:25;;;;;;;0.10;0.00;;;21.00;63.10;;;;;;6201777;28;20489;-35
2022/11/06 08:16:27;;;;;;;0.10;0.10;;;21.10;63.10;;;;;;6199641;28;20566;-35
2022/11/06 08:19:31;;;;;;;0.10;0.10;;;20.80;63.00;;;;;;6196456;28;20048;-35
2022/11/06 08:22:33;;;;;;;0.28;0.15;;;21.10;63.20;;;;;;6202357;28;20359;-35
2022/11/06 08:25:35;;;;;;;0.25;0.25;;;21.00;63.30;;;;;;6198758;28;20056;-35
2022/11/06 08:28:36;;;;;;;0.10;0.10;;;20.80;63.10;;;;;;6183906;28;20471;-35
2022/11/06 08:31:38;;;;;;;0.10;0.10;;;20.70;63.20;;;;;;6198839;28;20191;-35
2022/11/06 08:34:41;;;;;;;;;;;21.10;63.40;;;;;;6201452;28;20733;-35
2022/11/06 08:37:43;;;;;;;0.10;0.10;;;20.70;63.30;;;;;;6200239;28;20806;-34
2022/11/06 08:40:44;;;;;;;0.10;0.10;;;21.20;63.40;;;;;;6180110;28;20776;-35
2022/11/06 08:43:53;;;;;;;0.10;0.10;;;20.90;63.30;;;;;;6202017;28;20043;-35
2022/11/06 08:46:54;;;;;;;0.20;0.10;;;20.80;63.40;;;;;;6195981;28;20048;-35
2022/11/06 08:49:56;;;;;;;;;;;20.70;63.40;;;;;;6199759;28;20374;-35
2022/11/06 08:52:59;;;;;;;0.00;0.00;;;21.20;63.80;;;;;;6199942;28;20662;-35
2022/11/06 08:56:02;;;;;;;0.25;0.10;;;21.00;63.50;;;;;;6198942;28;20553;-35
2022/11/06 08:59:04;;;;;;;0.20;0.10;;;20.80;63.40;;;;;;6185583;28;20759;-35
2022/11/06 09:02:05;;;;;;;0.10;0.10;;;20.90;63.70;;;;;;6198790;28;21141;-35
2022/11/06 09:05:07;;;;;;;0.10;0.10;;;20.70;63.50;;;;;;6195565;28;20414;-35
2022/11/06 09:08:13;;;;;;;0.17;0.10;;;20.80;63.60;;;;;;6198392;28;20465;-35
2022/11/06 09:11:15;;;;;;;0.10;0.10;;;20.80;63.70;;;;;;6198457;28;20056;-35
2022/11/06 09:14:16;;;;;;;0.10;0.10;;;21.00;63.90;;;;;;6196223;28;20794;-33
2022/11/06 09:17:22;;;;;;;0.10;0.10;;;20.70;63.80;;;;;;6198994;28;20043;-34
2022/11/06 09:20:28;;;;;;;0.10;0.10;;;20.80;63.90;;;;;;6199492;28;20565;-35
2022/11/06 09:23:30;;;;;;;0.15;0.15;;;20.50;63.70;;;;;;6188527;28;20055;-34
2022/11/06 09:26:31;;;;;;;0.10;0.10;;;21.10;64.30;;;;;;6197585;28;20051;-35
2022/11/06 09:29:33;;;;;;;0.17;0.17;;;20.90;64.20;;;;;;6183141;28;20527;-35
2022/11/06 09:32:44;;;;;;;;;;;21.10;64.50;;;;;;6197951;28;20136;-35
2022/11/06 09:35:46;;;;;;;0.30;0.10;;;21.30;64.00;;;;;;6181402;28;21029;-35
2022/11/06 09:38:48;;;;;;;;;;;21.10;64.40;;;;;;6200024;28;20045;-34
2022/11/06 09:41:55;;;;;;;0.20;0.20;;;20.70;78.40;;;;;;6200843;28;20101;-35
2022/11/06 09:45:07;;;;;;;0.10;0.10;;;21.10;64.40;;;;;;6190412;28;20939;-34
2022/11/06 09:48:18;;;;;;;0.10;0.10;;;20.80;64.40;;;;;;6185806;28;20424;-35
2022/11/06 09:51:30;;;;;;;0.20;0.10;;;20.70;64.30;;;;;;6199633;28;20265;-35
2022/11/06 09:54:37;;;;;;;0.10;0.10;;;20.50;64.20;;;;;;6195532;28;20048;-35
2022/11/06 09:57:46;;;;;;;0.25;0.20;;;20.70;65.10;;;;;;6197097;28;20076;-34
2022/11/06 10:00:49;;;;;;;0.30;0.20;;;21.20;64.70;;;;;;6200164;28;20553;-35
2022/11/06 10:03:54;;;;;;;0.10;0.10;;;20.90;64.40;;;;;;6201220;28;20716;-35
2022/11/06 10:06:55;;;;;;;0.65;0.20;;;21.30;64.60;;;;;;6195697;28;20049;-35
2022/11/06 10:09:58;;;;;;;;;;;20.80;64.30;;;;;;6194181;28;20059;-35
2022/11/06 10:13:22;;;;;;;0.15;0.10;;;20.60;64.30;;;;;;6198082;28;20063;-35
2022/11/06 10:16:33;;;;;;;0.22;0.20;;;21.20;64.20;;;;;;6203257;28;20068;-34
2022/11/06 10:19:40;;;;;;;0.13;0.10;;;20.70;64.10;;;;;;6185187;28;20927;-35
2022/11/06 10:22:52;;;;;;;0.20;0.20;;;20.80;64.10;;;;;;6202755;28;20045;-35
2022/11/06 10:26:06;;;;;;;0.38;0.15;;;21.00;64.20;;;;;;6202582;28;20330;-35
2022/11/06 10:29:22;;;;;;;0.20;0.20;;;20.80;64.20;;;;;;6197639;28;20146;-35
2022/11/06 10:32:34;;;;;;;0.20;0.20;;;20.80;64.20;;;;;;6188529;28;20049;-34
2022/11/06 10:35:40;;;;;;;1.08;0.30;;;21.20;64.40;;;;;;6199374;28;20313;-35
2022/11/06 10:38:47;;;;;;;0.28;0.10;;;20.90;64.30;;;;;;6199348;28;20049;-35
2022/11/06 10:41:57;;;;;;;0.65;0.20;;;21.10;78.80;;;;;;6198204;28;20063;-35
2022/11/06 10:45:03;;;;;;;0.73;0.22;;;21.10;64.50;;;;;;6196585;28;20044;-35
2022/11/06 10:48:20;;;;;;;0.10;0.10;;;20.70;64.30;;;;;;6190499;28;20495;-35
2022/11/06 10:51:36;;;;;;;0.17;0.15;;;20.70;64.50;;;;;;6198155;28;20100;-35
2022/11/06 10:54:51;;;;;;;0.50;0.30;;;21.20;64.70;;;;;;6196175;28;20535;-35
2022/11/06 10:57:57;;;;;;;0.20;0.17;;;21.30;64.80;;;;;;6199209;28;20907;-35
2022/11/06 11:01:03;;;;;;;0.30;0.20;;;20.90;64.60;;;;;;6196533;28;20583;-35
2022/11/06 11:04:05;;;;;;;0.10;0.10;;;21.20;65.50;;;;;;6195628;28;20063;-35
2022/11/06 11:07:13;;;;;;;0.20;0.20;;;21.20;65.10;;;;;;6198219;28;20215;-35
2022/11/06 11:10:27;;;;;;;0.20;0.10;;;21.30;65.10;;;;;;6185644;28;20096;-35
2022/11/06 11:13:29;;;;;;;0.60;0.30;;;21.30;65.00;;;;;;6197142;28;20547;-35
2022/11/06 11:16:33;;;;;;;0.45;0.20;;;21.30;65.10;;;;;;6185790;28;20499;-34
2022/11/06 11:19:37;;;;;;;0.50;0.30;;;21.20;65.70;;;;;;6197717;28;20856;-36
2022/11/06 11:22:38;;;;;;;0.52;0.28;;;21.30;65.10;;;;;;6200972;28;20682;-35
2022/11/06 11:25:42;;;;;;;0.55;0.35;;;21.10;65.10;;;;;;6198671;28;20329;-35
2022/11/06 11:28:50;;;;;;;0.40;0.28;;;21.00;64.90;;;;;;6182086;28;21120;-34
2022/11/06 11:31:55;;;;;;;0.25;0.25;;;21.50;65.10;;;;;;6194024;28;20579;-34
2022/11/06 11:34:57;;;;;;;0.20;0.20;;;21.30;65.00;;;;;;6193714;28;20165;-34
2022/11/06 11:38:09;;;;;;;0.30;0.20;;;21.00;64.80;;;;;;6195338;28;20834;-35
2022/11/06 11:41:13;;;;;;;0.30;0.30;;;20.80;64.60;;;;;;6192429;28;20670;-35
2022/11/06 11:44:17;;;;;;;0.30;0.10;;;20.90;64.70;;;;;;6194316;28;20048;-34
2022/11/06 11:47:21;;;;;;;0.20;0.10;;;21.30;64.90;;;;;;6180724;28;20081;-34
2022/11/06 11:50:28;;;;;;;0.60;0.30;;;21.10;64.70;;;;;;6177583;28;20140;-35
2022/11/06 11:53:30;;;;;;;0.28;0.20;;;20.90;64.40;;;;;;6175455;28;20041;-35
2022/11/06 11:56:32;;;;;;;0.60;0.25;;;21.10;64.60;;;;;;6194545;28;20584;-35
2022/11/06 12:00:01;;;;;;;0.22;0.20;;;21.20;64.50;;;;;;6178107;28;21157;-35
2022/11/06 12:03:11;;;;;;;0.60;0.25;;;21.40;64.40;;;;;;6171165;28;20041;-35
2022/11/06 12:06:15;;;;;;;0.38;0.20;;;20.80;63.90;;;;;;6195134;28;20673;-35
2022/11/06 12:09:17;;;;;;;0.25;0.20;;;21.20;64.10;;;;;;6191803;28;20139;-35
2022/11/06 12:12:23;;;;;;;0.30;0.20;;;21.10;64.00;;;;;;6193185;28;20051;-35
2022/11/06 12:15:28;;;;;;;0.35;0.20;;;20.90;63.70;;;;;;6195630;28;20148;-35
2022/11/06 12:18:32;;;;;;;0.22;0.13;;;20.70;63.50;;;;;;6180201;28;20302;-35
2022/11/06 12:21:37;;;;;;;0.25;0.15;;;21.00;63.70;;;;;;6195992;28;20387;-35
2022/11/06 12:24:45;;;;;;;0.30;0.20;;;20.80;63.60;;;;;;6177208;28;20507;-35
2022/11/06 12:27:52;;;;;;;0.25;0.10;;;20.90;63.50;;;;;;6192852;28;20672;-35
2022/11/06 12:31:02;;;;;;;0.20;0.10;;;21.20;63.70;;;;;;6197750;28;20971;-35
2022/11/06 12:34:07;;;;;;;0.15;0.10;;;21.30;63.70;;;;;;6197558;28;20321;-35
2022/11/06 12:37:21;;;;;;;0.55;0.30;;;21.20;63.70;;;;;;6194377;28;20072;-35
2022/11/06 12:40:28;;;;;;;1.17;0.25;;;21.30;63.80;;;;;;6199151;28;20519;-35
2022/11/06 12:43:36;;;;;;;0.30;0.20;;;21.20;63.70;;;;;;6196826;28;20921;-35
2022/11/06 12:46:47;;;;;;;0.15;0.15;;;21.20;63.70;;;;;;6199848;28;20055;-35
2022/11/06 12:50:10;;;;;;;0.32;0.10;;;21.00;63.60;;;;;;6193950;28;20090;-34
2022/11/06 12:53:23;;;;;;;0.52;0.10;;;21.10;63.70;;;;;;6166877;28;20045;-35
2022/11/06 12:56:32;;;;;;;0.40;0.25;;;21.10;63.60;;;;;;6163469;28;20831;-34
2022/11/06 12:59:47;;;;;;;0.20;0.20;;;21.10;63.50;;;;;;6186214;28;20399;-35
2022/11/06 13:03:07;;;;;;;0.85;0.20;;;21.30;63.40;;;;;;6185945;28;20458;-35
2022/11/06 13:06:14;;;;;;;0.38;0.10;;;21.40;63.50;;;;;;6191379;28;20987;-35
2022/11/06 13:09:22;;;;;;;0.28;0.20;;;21.40;63.40;;;;;;6173105;28;20055;-35
2022/11/06 13:12:31;;;;;;;0.35;0.20;;;21.30;63.30;;;;;;6191018;28;20214;-35
2022/11/06 13:15:39;;;;;;;0.35;0.17;;;21.10;63.20;;;;;;6183290;28;20045;-34
2022/11/06 13:18:45;;;;;;;0.38;0.20;;;21.30;63.30;;;;;;6189290;28;20129;-34
2022/11/06 13:22:11;;;;;;;0.13;0.10;;;21.40;63.30;;;;;;6189961;28;20164;-35
2022/11/06 13:25:19;;;;;;;0.15;0.10;;;21.20;63.10;;;;;;6184220;28;20523;-35
2022/11/06 13:28:27;;;;;;;0.55;0.20;;;21.10;63.00;;;;;;6171313;28;20461;-35
2022/11/06 13:31:35;;;;;;;1.38;0.45;;;21.30;63.00;;;;;;6183037;28;20457;-35
2022/11/06 13:34:40;;;;;;;0.45;0.20;;;21.50;63.10;;;;;;6187532;28;20479;-35
2022/11/06 13:37:46;;;;;;;0.75;0.20;;;21.40;63.00;;;;;;6155629;28;20326;-35
2022/11/06 13:40:52;;;;;;;0.40;0.30;;;21.30;62.80;;;;;;6164523;28;20045;-35
2022/11/06 13:43:58;;;;;;;0.40;0.30;;;21.40;62.80;;;;;;6167098;28;20217;-35
2022/11/06 13:47:08;;;;;;;0.40;0.20;;;21.10;62.50;;;;;;6138833;28;20049;-35
2022/11/06 13:50:15;;;;;;;0.22;0.20;;;21.00;62.40;;;;;;6179147;28;20913;-35
2022/11/06 13:53:22;;;;;;;0.20;0.10;;;20.90;62.30;;;;;;6183638;28;20424;-35
2022/11/06 13:56:46;;;;;;;0.28;0.20;;;21.20;62.30;;;;;;6165782;28;20195;-35
2022/11/06 14:00:02;;;;;;;0.38;0.20;;;21.30;62.20;;;;;;6177493;28;20075;-35
2022/11/06 14:03:28;;;;;;;0.43;0.35;;;21.30;62.10;;;;;;6181225;28;20049;-35
2022/11/06 14:06:31;;;;;;;0.20;0.20;;;21.00;61.70;;;;;;6185135;28;21035;-35
2022/11/06 14:09:35;;;;;;;0.45;0.20;;;21.00;61.70;;;;;;6151563;28;20782;-36
2022/11/06 14:12:36;;;;;;;0.57;0.30;;;21.30;61.70;;;;;;6178190;28;20568;-35
2022/11/06 14:15:40;;;;;;;0.50;0.30;;;21.40;61.70;;;;;;6185204;28;20291;-36
2022/11/06 14:18:42;;;;;;;0.70;0.20;;;20.90;61.30;;;;;;6185214;28;20205;-35
2022/11/06 14:21:46;;;;;;;0.52;0.20;;;21.40;61.40;;;;;;6181982;28;20861;-35
2022/11/06 14:24:48;;;;;;;0.75;0.30;;;21.40;61.00;;;;;;6181409;28;20503;-36
2022/11/06 14:28:00;;;;;;;;;;;21.50;61.00;;;;;;6186934;28;20237;-36
2022/11/06 14:31:01;;;;;;;;;;;21.70;61.10;;;;;;6190266;28;19936;-36
2022/11/06 14:34:28;;;;;;;1.45;0.25;;;21.50;61.10;;;;;;6172741;28;20331;-35
2022/11/06 14:37:45;;;;;;;0.50;0.30;;;21.50;60.80;;;;;;6186417;28;20055;-35
2022/11/06 14:40:47;;;;;;;0.20;0.13;;;21.40;60.40;;;;;;6166957;28;20829;-36
2022/11/06 14:43:50;;;;;;;0.40;0.20;;;21.50;60.40;;;;;;6184129;28;20974;-36
2022/11/06 14:46:55;;;;;;;0.73;0.20;;;21.40;60.10;;;;;;6185140;28;20247;-37
2022/11/06 14:50:00;;;;;;;0.47;0.28;;;21.50;59.90;;;;;;6181842;28;20045;-35
2022/11/06 14:53:06;;;;;;;0.30;0.30;;;21.10;59.60;;;;;;6161261;28;20336;-35
2022/11/06 14:56:10;;;;;;;0.28;0.25;;;21.20;59.50;;;;;;6148523;28;20645;-35
2022/11/06 14:59:19;;;;;;;0.52;0.20;;;21.70;59.80;;;;;;6182283;28;20212;-36
2022/11/06 15:02:25;;;;;;;0.45;0.30;;;21.60;59.60;;;;;;6185923;28;20144;-35
2022/11/06 15:05:29;;;;;;;0.47;0.22;;;21.20;59.30;;;;;;6189392;28;20574;-36
2022/11/06 15:08:55;;;;;;;0.60;0.38;;;21.30;59.30;;;;;;6183934;28;20151;-36
2022/11/06 15:12:03;;;;;;;0.70;0.30;;;21.10;59.10;;;;;;6186593;28;20045;-36
2022/11/06 15:15:14;;;;;;;0.30;0.20;;;21.60;59.30;;;;;;6170190;28;20418;-36
2022/11/06 15:18:19;;;;;;;0.75;0.30;;;21.40;59.20;;;;;;6174235;28;20045;-36
2022/11/06 15:21:23;;;;;;;0.52;0.30;;;21.50;59.70;;;;;;6170705;28;20516;-36
2022/11/06 15:24:27;;;;;;;1.05;0.40;;;21.70;59.30;;;;;;6166549;28;20202;-36
2022/11/06 15:27:37;;;;;;;0.55;0.17;;;21.60;59.10;;;;;;6184057;28;21083;-34
2022/11/06 15:30:48;;;;;;;0.70;0.35;;;21.50;58.80;;;;;;6186320;28;21085;-35
2022/11/06 15:33:57;;;;;;;0.30;0.20;;;21.50;58.60;;;;;;6187780;28;20072;-34
2022/11/06 15:37:08;;;;;;;0.85;0.35;;;21.50;58.30;;;;;;6194632;28;20041;-35
2022/11/06 15:40:23;;;;;;;1.08;0.30;;;21.50;58.20;;;;;;6169978;28;20051;-35
2022/11/06 15:43:30;;;;;;;1.02;0.43;;;20.80;57.50;;;;;;6166396;28;20107;-35
2022/11/06 15:46:31;;;;;;;0.43;0.28;;;21.50;57.70;;;;;;6188085;28;21260;-35
2022/11/06 15:49:32;;;;;;;0.73;0.40;;;21.40;57.60;;;;;;6187093;28;20095;-35
2022/11/06 15:52:34;;;;;;;0.20;0.20;;;21.40;57.30;;;;;;6189732;28;20415;-34
2022/11/06 15:55:37;;;;;;;;;;;21.40;57.10;;;;;;6185756;28;20041;-35
2022/11/06 15:58:39;;;;;;;0.35;0.20;;;21.50;57.10;;;;;;6175250;28;20161;-36
2022/11/06 16:01:45;;;;;;;1.17;0.45;;;21.50;57.10;;;;;;6179248;28;20132;-35
2022/11/06 16:04:48;;;;;;;0.57;0.30;;;21.60;56.90;;;;;;6144908;28;20429;-35
2022/11/06 16:07:51;;;;;;;1.20;0.40;;;21.10;56.40;;;;;;6168288;28;20648;-35
2022/11/06 16:10:53;;;;;;;0.50;0.35;;;21.50;56.70;;;;;;6180014;28;20502;-35
2022/11/06 16:13:56;;;;;;;0.20;0.20;;;21.30;56.50;;;;;;6190494;28;20073;-34
2022/11/06 16:17:08;;;;;;;0.32;0.20;;;21.50;56.60;;;;;;6184513;28;20111;-35
2022/11/06 16:20:12;;;;;;;0.73;0.35;;;21.50;56.60;;;;;;6186026;28;20045;-35